Holbrook, AZ (86028)

10:29 PM MST on March 29, 2015 (GMT -0700)
APRSWXNET Concho AZ US | | Change Station
CLOSE
Current Station
Personal Weather Station
Location: Concho, AZ
Elevation: 5580 ft
Nearby Weather Stations

Elev 5580 ft 34.59 °N, 109.65 °W | Updated 30 minutes ago

Partly Cloudy
Partly Cloudy
58 °F
Feels Like 58 °F
N
2
Wind Variable Wind from WSW
Gusts 5.0 mph

Today
High -- | Low -- °F
--% Chance of Precip.
Yesterday
High -- | Low -- °F
Precip. -- in
6:10 AM 6:38 PM
Waxing Gibbous, 77% visible
Pressure 30.01 in
Visibility 10.0 miles
Clouds Clear
Dew Point 16 °F
Humidity 19%
Rainfall in
Snow Depth Not available.
UV 0 out of 12
Pollen 10.10 out of 12
Air Quality Not available.
Flu Activity Not available.
METAR KSJN 300454Z AUTO 00000KT 10SM CLR 14/M10 A3022 RMK AO2 SLP161 T01391100

More Conditions Fewer Conditions

Pressure 30.01 in
Visibility 10.0 miles
Clouds Clear
Dew Point 16 °F
Humidity 19%
Rainfall in
Snow Depth Not available.
UV 0 out of 12
Pollen 10.10 out of 12
Air Quality Not available.
Flu Activity Not available.
METAR KSJN 300454Z AUTO 00000KT 10SM CLR 14/M10 A3022 RMK AO2 SLP161 T01391100

More Conditions Fewer Conditions

10-Day Weather Forecast

Almanac

Astronomy

Mar. 29, 2015 Rise Set
Actual Time
Civil Twilight
Nautical Twilight
Astronomical Twilight
Moon
Length of Visible Light
Length of Day
Tomorrow will be .
, % of the Moon is Illuminated

Today's Extremes

State Highs State Lows

Community

WunderPhotos

Upload Photos

1,809,437 photos uploaded!

WunderBlogs® & News

Nearby

Air Quality

  Air Quality AQ Index Pollutant
Not available.

Snow Depth

Station Depth Elevation

Earthquake Activity

City Distance Mag. Time & Date
Minimum magnitude displayed is 2.5.

Coastal Water Temperatures

Place Temperature

Stations

Nearby Weather Stations

Station Location Temp. Windchill Dew Point Humidity Wind Precip. Elev Updated Type